Ellen Mcallister — WDG3673 — position and weather

sailwx.info

Track history (hours):
 
Tides and Currents Weather Stations Pressure Air Temp Water Temp Dewpoint Dewpoint Depression Visibility Wind Speed Wind Dir Waves Ship Positions

Ellen Mcallister

Owner: McAllister Towing & Transportation Inc., Staten Island, NY. More information available from US FCC via Universal Licensing System and Coast Guard Vessel Documentation Center.

Last reported at 2016-Aug-25 16:19 UTC. Time now 2016-Aug-25 21:59 UTC.
Position N 40°40' W 074°04'.

Length 35 m; draft 5 m.

Type: Tug. MMSI: 366836590.

Date/timePositionNaut miles runAvg speedWind from/ knotsBaromVisibWave heightAir tempDewpointWater temp
2016-Aug-25 16:19N 40°40' W 074°04'5 7.2
2016-Aug-25 15:33N 40°45' W 074°01'2 2.0
2016-Aug-25 14:33N 40°43' W 074°02'3 2.7
2016-Aug-25 13:14N 40°40' W 074°04'1 0.2
2016-Aug-25 08:05N 40°39' W 074°05'1 0.0
2016-Aug-23 20:25N 40°39' W 074°04'1 0.0
2016-Aug-23 00:33N 40°40' W 074°04'0 0.2
2016-Aug-22 23:33N 40°40' W 074°04'2 0.2
2016-Aug-22 08:33N 40°37' W 074°03'3 0.1
2016-Aug-20 23:31N 40°40' W 074°04'0 0.0
2016-Aug-20 22:33N 40°40' W 074°04'0 0.0
2016-Aug-20 21:28N 40°40' W 074°04'0 0.0
2016-Aug-20 20:32N 40°40' W 074°04'0 0.0
2016-Aug-20 19:33N 40°40' W 074°04'0 0.3
2016-Aug-20 18:11N 40°40' W 074°05'0 0.7
2016-Aug-20 17:33N 40°40' W 074°04'0 0.0
2016-Aug-20 16:33N 40°40' W 074°04'0 0.0
2016-Aug-20 15:29N 40°40' W 074°04'0 0.0
2016-Aug-20 14:24N 40°40' W 074°04'0 0.0
2016-Aug-20 13:32N 40°40' W 074°04'0 0.0
2016-Aug-20 12:33N 40°40' W 074°04'0 0.0
2016-Aug-20 11:31N 40°40' W 074°04'3 3.4
2016-Aug-20 10:31N 40°41' W 074°00'4 0.5
2016-Aug-20 02:33N 40°40' W 074°05'0 0.0
2016-Aug-20 01:29N 40°40' W 074°05'0 0.0
2016-Aug-20 00:10N 40°40' W 074°05'0 0.0
2016-Aug-19 23:25N 40°40' W 074°05'0 0.0
2016-Aug-19 22:33N 40°40' W 074°05'3 3.1
2016-Aug-19 21:33N 40°41' W 074°01'3 2.5
2016-Aug-19 20:33N 40°42' W 073°58'5 5.0
2016-Aug-19 19:32N 40°40' W 074°04'0 0.2
2016-Aug-19 18:27N 40°40' W 074°04'0 0.0
2016-Aug-19 17:33N 40°40' W 074°04'0 0.0
2016-Aug-19 16:23N 40°40' W 074°04'3 0.4
2016-Aug-19 09:23N 40°38' W 074°04'0 0.2
2016-Aug-19 08:32N 40°37' W 074°04'0 0.0
2016-Aug-19 07:32N 40°37' W 074°04'3 3.1
2016-Aug-19 06:31N 40°40' W 074°05'1 0.6
2016-Aug-19 04:33N 40°39' W 074°05'1 0.1
2016-Aug-18 06:16N 40°39' W 074°04'0 0.0
2016-Aug-17 20:22N 40°39' W 074°04'1 0.1
2016-Aug-17 09:33N 40°38' W 074°03'2 0.1
2016-Aug-16 20:21N 40°39' W 074°05'1 1.8
2016-Aug-16 19:33N 40°39' W 074°03'2 1.5
2016-Aug-16 18:33N 40°40' W 074°04'0 0.0
2016-Aug-16 17:33N 40°40' W 074°04'0 0.0
2016-Aug-16 16:24N 40°40' W 074°04'0 0.0
2016-Aug-16 15:05N 40°40' W 074°04'0 0.0
2016-Aug-16 14:32N 40°40' W 074°04'0 0.0
2016-Aug-16 13:33N 40°40' W 074°04'0 0.0
2016-Aug-16 12:32N 40°40' W 074°04'0 0.0
2016-Aug-16 11:18N 40°40' W 074°04'  
Track history (hours):
 
Tides and Currents Weather Stations Pressure Air Temp Water Temp Dewpoint Dewpoint Depression Visibility Wind Speed Wind Dir Waves Ship Positions

Ellen Mcallister

Owner: McAllister Towing & Transportation Inc., Staten Island, NY. More information available from US FCC via Universal Licensing System and Coast Guard Vessel Documentation Center.

Last reported at 2016-Aug-25 16:19 UTC. Time now 2016-Aug-25 21:59 UTC.
Position N 40°40' W 074°04'.

Length 35 m; draft 5 m.

Type: Tug. MMSI: 366836590.

Date/timePositionNaut miles runAvg speedWind from/ knotsBaromVisibWave heightAir tempDewpointWater temp
2016-Aug-25 16:19N 40°40' W 074°04'5 7.2
2016-Aug-25 15:33N 40°45' W 074°01'2 2.0
2016-Aug-25 14:33N 40°43' W 074°02'3 2.7
2016-Aug-25 13:14N 40°40' W 074°04'1 0.2
2016-Aug-25 08:05N 40°39' W 074°05'1 0.0
2016-Aug-23 20:25N 40°39' W 074°04'1 0.0
2016-Aug-23 00:33N 40°40' W 074°04'0 0.2
2016-Aug-22 23:33N 40°40' W 074°04'2 0.2
2016-Aug-22 08:33N 40°37' W 074°03'3 0.1
2016-Aug-20 23:31N 40°40' W 074°04'0 0.0
2016-Aug-20 22:33N 40°40' W 074°04'0 0.0
2016-Aug-20 21:28N 40°40' W 074°04'0 0.0
2016-Aug-20 20:32N 40°40' W 074°04'0 0.0
2016-Aug-20 19:33N 40°40' W 074°04'0 0.3
2016-Aug-20 18:11N 40°40' W 074°05'0 0.7
2016-Aug-20 17:33N 40°40' W 074°04'0 0.0
2016-Aug-20 16:33N 40°40' W 074°04'0 0.0
2016-Aug-20 15:29N 40°40' W 074°04'0 0.0
2016-Aug-20 14:24N 40°40' W 074°04'0 0.0
2016-Aug-20 13:32N 40°40' W 074°04'0 0.0
2016-Aug-20 12:33N 40°40' W 074°04'0 0.0
2016-Aug-20 11:31N 40°40' W 074°04'3 3.4
2016-Aug-20 10:31N 40°41' W 074°00'4 0.5
2016-Aug-20 02:33N 40°40' W 074°05'0 0.0
2016-Aug-20 01:29N 40°40' W 074°05'0 0.0
2016-Aug-20 00:10N 40°40' W 074°05'0 0.0
2016-Aug-19 23:25N 40°40' W 074°05'0 0.0
2016-Aug-19 22:33N 40°40' W 074°05'3 3.1
2016-Aug-19 21:33N 40°41' W 074°01'3 2.5
2016-Aug-19 20:33N 40°42' W 073°58'5 5.0
2016-Aug-19 19:32N 40°40' W 074°04'0 0.2
2016-Aug-19 18:27N 40°40' W 074°04'0 0.0
2016-Aug-19 17:33N 40°40' W 074°04'0 0.0
2016-Aug-19 16:23N 40°40' W 074°04'3 0.4
2016-Aug-19 09:23N 40°38' W 074°04'0 0.2
2016-Aug-19 08:32N 40°37' W 074°04'0 0.0
2016-Aug-19 07:32N 40°37' W 074°04'3 3.1
2016-Aug-19 06:31N 40°40' W 074°05'1 0.6
2016-Aug-19 04:33N 40°39' W 074°05'1 0.1
2016-Aug-18 06:16N 40°39' W 074°04'0 0.0
2016-Aug-17 20:22N 40°39' W 074°04'1 0.1
2016-Aug-17 09:33N 40°38' W 074°03'2 0.1
2016-Aug-16 20:21N 40°39' W 074°05'1 1.8
2016-Aug-16 19:33N 40°39' W 074°03'2 1.5
2016-Aug-16 18:33N 40°40' W 074°04'0 0.0
2016-Aug-16 17:33N 40°40' W 074°04'0 0.0
2016-Aug-16 16:24N 40°40' W 074°04'0 0.0
2016-Aug-16 15:05N 40°40' W 074°04'0 0.0
2016-Aug-16 14:32N 40°40' W 074°04'0 0.0
2016-Aug-16 13:33N 40°40' W 074°04'0 0.0
2016-Aug-16 12:32N 40°40' W 074°04'0 0.0
2016-Aug-16 11:18N 40°40' W 074°04'  

Dump ship's entire track history